Not for real navigation | The accuracy of this data is not assured | See disclaimer for more information
ICAO NAME COUNTRY WIND Kt GUST Kt VIS TEMP/DEW BARO
YTEF 12 0 9999 41/9 29.74
YTEF 310500Z AUTO 29012KT 230V320 9999 // SCT125 41/09 Q1007
YARG 9 0 9999 40/16 29.77
YARG 310500Z AUTO 36009KT 9999 // SCT120 40/16 Q1008
VTCL Lampang Thailand 3 0 7000 39/13 29.83
VTCL 310500Z VRB03KT 7000 NSC 39/13 Q1010 NOSIG
VTUK Khon Kaen Thailand 3 0 9000 38/20 29.83
VTUK 310500Z 05003KT 360V150 9000 NSC 38/20 Q1010 NOSIG
VTUQ 5 0 9999 38/21 29.85
VTUQ 310500Z VRB05KT 9999 FEW030 38/21 Q1011 NOSIG

Show more

Close Menu